sensor_id;sensor_type;location;lat;lon;timestamp;pressure;altitude;pressure_sealevel;temperature;humidity
6694;BME280;3384;42.628;23.380;2023-02-04T00:01:45;93977.72;;;3.65;100.00
6694;BME280;3384;42.628;23.380;2023-02-04T00:04:13;93947.53;;;3.41;100.00
6694;BME280;3384;42.628;23.380;2023-02-04T00:06:39;93962.38;;;3.47;100.00
6694;BME280;3384;42.628;23.380;2023-02-04T00:09:06;93948.03;;;3.43;100.00
6694;BME280;3384;42.628;23.380;2023-02-04T00:11:35;93958.84;;;3.06;100.00
6694;BME280;3384;42.628;23.380;2023-02-04T00:14:01;93946.94;;;3.09;100.00
6694;BME280;3384;42.628;23.380;2023-02-04T00:16:28;93931.56;;;2.96;100.00
6694;BME280;3384;42.628;23.380;2023-02-04T00:18:55;93943.22;;;3.10;100.00
6694;BME280;3384;42.628;23.380;2023-02-04T00:21:22;93927.63;;;3.18;100.00
6694;BME280;3384;42.628;23.380;2023-02-04T00:23:48;93943.44;;;2.88;100.00
6694;BME280;3384;42.628;23.380;2023-02-04T00:26:16;93933.97;;;3.27;100.00
6694;BME280;3384;42.628;23.380;2023-02-04T00:28:44;93932.94;;;3.33;100.00
6694;BME280;3384;42.628;23.380;2023-02-04T00:31:11;93937.19;;;3.59;100.00
6694;BME280;3384;42.628;23.380;2023-02-04T00:33:38;93930.81;;;3.25;100.00
6694;BME280;3384;42.628;23.380;2023-02-04T00:36:07;93925.28;;;3.37;100.00
6694;BME280;3384;42.628;23.380;2023-02-04T00:38:34;93941.69;;;3.59;100.00
6694;BME280;3384;42.628;23.380;2023-02-04T00:41:01;93944.34;;;3.44;100.00
6694;BME280;3384;42.628;23.380;2023-02-04T00:43:28;93931.59;;;3.26;100.00
6694;BME280;3384;42.628;23.380;2023-02-04T00:45:56;93927.66;;;3.28;100.00
6694;BME280;3384;42.628;23.380;2023-02-04T00:48:23;93928.94;;;3.26;100.00
6694;BME280;3384;42.628;23.380;2023-02-04T00:50:49;93924.72;;;3.40;100.00
6694;BME280;3384;42.628;23.380;2023-02-04T00:53:18;93918.09;;;3.37;100.00
6694;BME280;3384;42.628;23.380;2023-02-04T00:55:45;93918.00;;;2.77;100.00
6694;BME280;3384;42.628;23.380;2023-02-04T00:58:11;93927.38;;;3.20;100.00
6694;BME280;3384;42.628;23.380;2023-02-04T01:00:38;93914.66;;;3.32;100.00
6694;BME280;3384;42.628;23.380;2023-02-04T01:03:06;93910.97;;;3.23;100.00
6694;BME280;3384;42.628;23.380;2023-02-04T01:05:33;93895.06;;;3.73;100.00
6694;BME280;3384;42.628;23.380;2023-02-04T01:08:00;93908.84;;;3.20;100.00
6694;BME280;3384;42.628;23.380;2023-02-04T01:10:27;93895.56;;;3.00;100.00
6694;BME280;3384;42.628;23.380;2023-02-04T01:12:54;93897.69;;;3.33;100.00
6694;BME280;3384;42.628;23.380;2023-02-04T01:15:20;93881.00;;;2.97;100.00
6694;BME280;3384;42.628;23.380;2023-02-04T01:17:49;93863.78;;;2.89;100.00
6694;BME280;3384;42.628;23.380;2023-02-04T01:20:17;93873.63;;;3.24;100.00
6694;BME280;3384;42.628;23.380;2023-02-04T01:22:46;93862.25;;;3.44;100.00
6694;BME280;3384;42.628;23.380;2023-02-04T01:25:13;93859.84;;;3.37;100.00
6694;BME280;3384;42.628;23.380;2023-02-04T01:27:39;93859.31;;;3.40;100.00
6694;BME280;3384;42.628;23.380;2023-02-04T01:30:10;93863.25;;;3.83;100.00
6694;BME280;3384;42.628;23.380;2023-02-04T01:32:37;93859.06;;;3.37;100.00
6694;BME280;3384;42.628;23.380;2023-02-04T01:35:07;93843.91;;;3.67;100.00
6694;BME280;3384;42.628;23.380;2023-02-04T01:37:35;93854.53;;;3.57;100.00
6694;BME280;3384;42.628;23.380;2023-02-04T01:40:02;93837.56;;;2.73;100.00
6694;BME280;3384;42.628;23.380;2023-02-04T01:42:29;93826.25;;;3.23;100.00
6694;BME280;3384;42.628;23.380;2023-02-04T01:44:56;93837.03;;;3.66;100.00
6694;BME280;3384;42.628;23.380;2023-02-04T01:47:25;93831.50;;;2.97;100.00
6694;BME280;3384;42.628;23.380;2023-02-04T01:49:53;93824.09;;;2.89;100.00
6694;BME280;3384;42.628;23.380;2023-02-04T01:52:22;93828.34;;;2.96;100.00
6694;BME280;3384;42.628;23.380;2023-02-04T01:54:50;93823.28;;;3.34;100.00
6694;BME280;3384;42.628;23.380;2023-02-04T01:57:18;93836.81;;;3.28;100.00
6694;BME280;3384;42.628;23.380;2023-02-04T01:59:46;93826.97;;;3.48;100.00
6694;BME280;3384;42.628;23.380;2023-02-04T02:02:36;93821.69;;;3.53;100.00
6694;BME280;3384;42.628;23.380;2023-02-04T02:05:04;93823.22;;;3.79;100.00
6694;BME280;3384;42.628;23.380;2023-02-04T02:07:31;93817.72;;;3.26;100.00
6694;BME280;3384;42.628;23.380;2023-02-04T02:13:25;93812.78;;;4.08;100.00
6694;BME280;3384;42.628;23.380;2023-02-04T02:15:52;93817.94;;;3.74;100.00
6694;BME280;3384;42.628;23.380;2023-02-04T02:18:19;93822.91;;;3.91;100.00
6694;BME280;3384;42.628;23.380;2023-02-04T02:20:49;93808.63;;;3.92;100.00
6694;BME280;3384;42.628;23.380;2023-02-04T02:23:20;93795.19;;;3.63;100.00
6694;BME280;3384;42.628;23.380;2023-02-04T02:25:51;93790.09;;;3.77;100.00
6694;BME280;3384;42.628;23.380;2023-02-04T02:28:20;93800.44;;;3.83;100.00
6694;BME280;3384;42.628;23.380;2023-02-04T02:30:48;93776.97;;;3.27;100.00
6694;BME280;3384;42.628;23.380;2023-02-04T02:33:16;93771.34;;;3.58;100.00
6694;BME280;3384;42.628;23.380;2023-02-04T02:35:45;93765.56;;;4.15;100.00
6694;BME280;3384;42.628;23.380;2023-02-04T02:38:14;93749.44;;;3.23;100.00
6694;BME280;3384;42.628;23.380;2023-02-04T02:40:41;93737.44;;;3.60;100.00
6694;BME280;3384;42.628;23.380;2023-02-04T02:43:13;93733.00;;;3.36;100.00
6694;BME280;3384;42.628;23.380;2023-02-04T02:45:40;93722.34;;;3.56;100.00
6694;BME280;3384;42.628;23.380;2023-02-04T02:48:08;93706.22;;;3.47;100.00
6694;BME280;3384;42.628;23.380;2023-02-04T02:50:36;93700.41;;;3.40;100.00
6694;BME280;3384;42.628;23.380;2023-02-04T02:53:03;93701.72;;;3.48;100.00
6694;BME280;3384;42.628;23.380;2023-02-04T02:55:31;93712.47;;;3.76;100.00
6694;BME280;3384;42.628;23.380;2023-02-04T02:57:59;93711.75;;;3.61;100.00
6694;BME280;3384;42.628;23.380;2023-02-04T03:00:28;93723.38;;;3.60;100.00
6694;BME280;3384;42.628;23.380;2023-02-04T03:03:00;93705.03;;;3.78;100.00
6694;BME280;3384;42.628;23.380;2023-02-04T03:05:29;93700.84;;;3.62;100.00
6694;BME280;3384;42.628;23.380;2023-02-04T03:07:58;93719.72;;;3.46;100.00
6694;BME280;3384;42.628;23.380;2023-02-04T03:10:25;93723.69;;;3.53;100.00
6694;BME280;3384;42.628;23.380;2023-02-04T03:12:52;93724.59;;;2.88;100.00
6694;BME280;3384;42.628;23.380;2023-02-04T03:15:19;93715.91;;;3.82;100.00
6694;BME280;3384;42.628;23.380;2023-02-04T03:17:48;93730.22;;;3.71;100.00
6694;BME280;3384;42.628;23.380;2023-02-04T03:20:21;93738.72;;;3.73;100.00
6694;BME280;3384;42.628;23.380;2023-02-04T03:22:49;93739.25;;;3.70;100.00
6694;BME280;3384;42.628;23.380;2023-02-04T03:25:16;93736.97;;;3.38;100.00
6694;BME280;3384;42.628;23.380;2023-02-04T03:27:43;93732.44;;;3.54;100.00
6694;BME280;3384;42.628;23.380;2023-02-04T03:30:10;93731.06;;;3.66;100.00
6694;BME280;3384;42.628;23.380;2023-02-04T03:32:37;93722.88;;;3.58;100.00
6694;BME280;3384;42.628;23.380;2023-02-04T03:35:07;93723.94;;;3.52;100.00
6694;BME280;3384;42.628;23.380;2023-02-04T03:37:34;93712.56;;;3.41;100.00
6694;BME280;3384;42.628;23.380;2023-02-04T03:40:01;93709.69;;;3.38;100.00
6694;BME280;3384;42.628;23.380;2023-02-04T03:42:28;93716.31;;;3.30;100.00
6694;BME280;3384;42.628;23.380;2023-02-04T03:44:55;93721.09;;;3.33;100.00
6694;BME280;3384;42.628;23.380;2023-02-04T03:47:22;93699.28;;;3.66;100.00
6694;BME280;3384;42.628;23.380;2023-02-04T03:49:49;93709.91;;;3.56;100.00
6694;BME280;3384;42.628;23.380;2023-02-04T03:52:26;93690.53;;;3.66;100.00
6694;BME280;3384;42.628;23.380;2023-02-04T03:54:53;93689.34;;;3.87;100.00
6694;BME280;3384;42.628;23.380;2023-02-04T03:57:19;93693.47;;;3.59;100.00
6694;BME280;3384;42.628;23.380;2023-02-04T03:59:46;93683.41;;;3.51;100.00
6694;BME280;3384;42.628;23.380;2023-02-04T04:02:13;93673.50;;;3.77;100.00
6694;BME280;3384;42.628;23.380;2023-02-04T04:04:41;93667.22;;;3.68;100.00
6694;BME280;3384;42.628;23.380;2023-02-04T04:07:08;93651.59;;;3.61;100.00
6694;BME280;3384;42.628;23.380;2023-02-04T04:09:39;93644.31;;;4.25;100.00
6694;BME280;3384;42.628;23.380;2023-02-04T04:12:06;93641.00;;;4.05;100.00
6694;BME280;3384;42.628;23.380;2023-02-04T04:14:32;93637.38;;;3.91;100.00
6694;BME280;3384;42.628;23.380;2023-02-04T04:16:59;93639.63;;;3.05;100.00
6694;BME280;3384;42.628;23.380;2023-02-04T04:19:26;93622.44;;;3.61;100.00
6694;BME280;3384;42.628;23.380;2023-02-04T04:21:53;93635.34;;;3.78;100.00
6694;BME280;3384;42.628;23.380;2023-02-04T04:24:25;93631.31;;;3.90;100.00
6694;BME280;3384;42.628;23.380;2023-02-04T04:26:53;93622.56;;;3.90;100.00
6694;BME280;3384;42.628;23.380;2023-02-04T04:29:20;93629.72;;;3.36;100.00
6694;BME280;3384;42.628;23.380;2023-02-04T04:31:49;93641.47;;;4.17;100.00
6694;BME280;3384;42.628;23.380;2023-02-04T04:34:17;93640.31;;;4.28;100.00
6694;BME280;3384;42.628;23.380;2023-02-04T04:36:44;93639.22;;;4.34;100.00
6694;BME280;3384;42.628;23.380;2023-02-04T04:39:11;93654.41;;;3.80;100.00
6694;BME280;3384;42.628;23.380;2023-02-04T04:41:40;93656.13;;;3.56;100.00
6694;BME280;3384;42.628;23.380;2023-02-04T04:44:09;93667.41;;;4.25;100.00
6694;BME280;3384;42.628;23.380;2023-02-04T04:46:35;93659.28;;;4.11;100.00
6694;BME280;3384;42.628;23.380;2023-02-04T04:49:04;93666.97;;;4.08;100.00
6694;BME280;3384;42.628;23.380;2023-02-04T04:51:32;93689.84;;;3.99;100.00
6694;BME280;3384;42.628;23.380;2023-02-04T04:54:08;93684.19;;;3.57;100.00
6694;BME280;3384;42.628;23.380;2023-02-04T04:56:35;93672.19;;;3.74;100.00
6694;BME280;3384;42.628;23.380;2023-02-04T04:59:02;93675.47;;;4.05;100.00
6694;BME280;3384;42.628;23.380;2023-02-04T05:01:33;93689.59;;;3.27;100.00
6694;BME280;3384;42.628;23.380;2023-02-04T05:04:01;93671.66;;;3.72;100.00
6694;BME280;3384;42.628;23.380;2023-02-04T05:06:28;93668.59;;;4.42;100.00
6694;BME280;3384;42.628;23.380;2023-02-04T05:08:55;93673.34;;;4.07;100.00
6694;BME280;3384;42.628;23.380;2023-02-04T05:11:22;93684.97;;;4.11;100.00
6694;BME280;3384;42.628;23.380;2023-02-04T05:13:49;93665.19;;;3.98;100.00
6694;BME280;3384;42.628;23.380;2023-02-04T05:16:15;93666.31;;;3.82;100.00
6694;BME280;3384;42.628;23.380;2023-02-04T05:18:44;93665.88;;;3.65;100.00
6694;BME280;3384;42.628;23.380;2023-02-04T05:21:10;93663.94;;;3.86;100.00
6694;BME280;3384;42.628;23.380;2023-02-04T05:23:40;93688.13;;;4.56;100.00
6694;BME280;3384;42.628;23.380;2023-02-04T05:26:07;93706.28;;;3.91;100.00
6694;BME280;3384;42.628;23.380;2023-02-04T05:28:34;93676.91;;;4.31;100.00
6694;BME280;3384;42.628;23.380;2023-02-04T05:31:01;93683.28;;;3.81;100.00
6694;BME280;3384;42.628;23.380;2023-02-04T05:33:28;93694.81;;;3.52;100.00
6694;BME280;3384;42.628;23.380;2023-02-04T05:35:56;93705.75;;;3.94;100.00
6694;BME280;3384;42.628;23.380;2023-02-04T05:38:23;93707.31;;;4.00;100.00
6694;BME280;3384;42.628;23.380;2023-02-04T05:40:49;93698.03;;;3.39;100.00
6694;BME280;3384;42.628;23.380;2023-02-04T05:43:16;93706.56;;;3.89;100.00
6694;BME280;3384;42.628;23.380;2023-02-04T05:45:43;93711.78;;;3.51;100.00
6694;BME280;3384;42.628;23.380;2023-02-04T05:48:10;93706.44;;;3.61;100.00
6694;BME280;3384;42.628;23.380;2023-02-04T05:50:37;93721.63;;;4.04;100.00
6694;BME280;3384;42.628;23.380;2023-02-04T05:53:05;93719.00;;;3.94;100.00
6694;BME280;3384;42.628;23.380;2023-02-04T05:55:32;93730.94;;;2.42;100.00
6694;BME280;3384;42.628;23.380;2023-02-04T05:57:58;93747.44;;;3.83;100.00
6694;BME280;3384;42.628;23.380;2023-02-04T06:00:25;93706.44;;;4.58;100.00
6694;BME280;3384;42.628;23.380;2023-02-04T06:02:52;93702.00;;;4.82;100.00
6694;BME280;3384;42.628;23.380;2023-02-04T06:05:19;93702.56;;;4.79;100.00
6694;BME280;3384;42.628;23.380;2023-02-04T06:07:47;93705.06;;;4.94;100.00
6694;BME280;3384;42.628;23.380;2023-02-04T06:10:20;93741.53;;;5.12;100.00
6694;BME280;3384;42.628;23.380;2023-02-04T06:12:47;93723.78;;;5.36;100.00
6694;BME280;3384;42.628;23.380;2023-02-04T06:15:14;93712.22;;;5.27;100.00
6694;BME280;3384;42.628;23.380;2023-02-04T06:17:41;93744.28;;;5.59;100.00
6694;BME280;3384;42.628;23.380;2023-02-04T06:20:09;93711.81;;;5.38;100.00
6694;BME280;3384;42.628;23.380;2023-02-04T06:22:36;93712.19;;;4.98;100.00
6694;BME280;3384;42.628;23.380;2023-02-04T06:25:03;93724.34;;;5.33;100.00
6694;BME280;3384;42.628;23.380;2023-02-04T06:27:32;93707.09;;;5.83;100.00
6694;BME280;3384;42.628;23.380;2023-02-04T06:29:59;93712.94;;;5.32;100.00
6694;BME280;3384;42.628;23.380;2023-02-04T06:32:26;93742.50;;;4.97;100.00
6694;BME280;3384;42.628;23.380;2023-02-04T06:34:53;93716.19;;;5.53;100.00
6694;BME280;3384;42.628;23.380;2023-02-04T06:37:20;93733.66;;;5.02;100.00
6694;BME280;3384;42.628;23.380;2023-02-04T06:39:49;93712.69;;;5.00;100.00
6694;BME280;3384;42.628;23.380;2023-02-04T06:42:16;93723.16;;;5.44;100.00
6694;BME280;3384;42.628;23.380;2023-02-04T06:44:44;93748.50;;;5.65;100.00
6694;BME280;3384;42.628;23.380;2023-02-04T06:47:11;93711.94;;;5.52;100.00
6694;BME280;3384;42.628;23.380;2023-02-04T06:49:37;93727.78;;;5.10;100.00
6694;BME280;3384;42.628;23.380;2023-02-04T06:52:04;93746.66;;;5.03;100.00
6694;BME280;3384;42.628;23.380;2023-02-04T06:54:31;93730.31;;;5.48;100.00
6694;BME280;3384;42.628;23.380;2023-02-04T06:56:58;93750.34;;;5.64;100.00
6694;BME280;3384;42.628;23.380;2023-02-04T06:59:31;93726.72;;;5.34;100.00
6694;BME280;3384;42.628;23.380;2023-02-04T07:01:59;93719.03;;;6.09;100.00
6694;BME280;3384;42.628;23.380;2023-02-04T07:04:26;93747.31;;;5.76;100.00
6694;BME280;3384;42.628;23.380;2023-02-04T07:06:53;93733.75;;;5.49;100.00
6694;BME280;3384;42.628;23.380;2023-02-04T07:09:20;93722.47;;;5.62;100.00
6694;BME280;3384;42.628;23.380;2023-02-04T07:11:47;93708.56;;;5.46;100.00
6694;BME280;3384;42.628;23.380;2023-02-04T07:14:14;93702.94;;;5.71;100.00
6694;BME280;3384;42.628;23.380;2023-02-04T07:16:40;93718.03;;;5.52;100.00
6694;BME280;3384;42.628;23.380;2023-02-04T07:19:09;93715.06;;;5.83;100.00
6694;BME280;3384;42.628;23.380;2023-02-04T07:21:35;93714.28;;;5.82;100.00
6694;BME280;3384;42.628;23.380;2023-02-04T07:24:02;93747.22;;;5.57;100.00
6694;BME280;3384;42.628;23.380;2023-02-04T07:26:29;93710.84;;;5.76;100.00
6694;BME280;3384;42.628;23.380;2023-02-04T07:28:56;93708.75;;;5.73;100.00
6694;BME280;3384;42.628;23.380;2023-02-04T07:31:23;93708.66;;;5.84;100.00
6694;BME280;3384;42.628;23.380;2023-02-04T07:33:50;93720.16;;;5.79;100.00
6694;BME280;3384;42.628;23.380;2023-02-04T07:36:18;93694.19;;;5.47;100.00
6694;BME280;3384;42.628;23.380;2023-02-04T07:38:45;93694.91;;;5.53;100.00
6694;BME280;3384;42.628;23.380;2023-02-04T07:41:11;93688.53;;;5.54;100.00
6694;BME280;3384;42.628;23.380;2023-02-04T07:43:38;93676.94;;;5.45;100.00
6694;BME280;3384;42.628;23.380;2023-02-04T07:46:05;93701.66;;;5.69;100.00
6694;BME280;3384;42.628;23.380;2023-02-04T07:48:32;93698.13;;;5.50;100.00
6694;BME280;3384;42.628;23.380;2023-02-04T07:50:58;93711.03;;;6.27;100.00
6694;BME280;3384;42.628;23.380;2023-02-04T07:53:27;93694.72;;;6.52;100.00
6694;BME280;3384;42.628;23.380;2023-02-04T07:55:53;93708.38;;;6.64;98.15
6694;BME280;3384;42.628;23.380;2023-02-04T07:58:20;93718.31;;;6.40;99.63
6694;BME280;3384;42.628;23.380;2023-02-04T08:00:48;93705.44;;;6.29;100.00
6694;BME280;3384;42.628;23.380;2023-02-04T08:03:14;93687.38;;;6.63;99.55
6694;BME280;3384;42.628;23.380;2023-02-04T08:05:41;93682.97;;;6.72;99.13
6694;BME280;3384;42.628;23.380;2023-02-04T08:08:08;93709.53;;;6.58;97.48
6694;BME280;3384;42.628;23.380;2023-02-04T08:10:36;93705.16;;;6.67;100.00
6694;BME280;3384;42.628;23.380;2023-02-04T08:13:03;93717.47;;;6.45;99.70
6694;BME280;3384;42.628;23.380;2023-02-04T08:15:30;93710.75;;;6.29;100.00
6694;BME280;3384;42.628;23.380;2023-02-04T08:17:57;93696.81;;;6.37;100.00
6694;BME280;3384;42.628;23.380;2023-02-04T08:20:23;93699.53;;;6.32;100.00
6694;BME280;3384;42.628;23.380;2023-02-04T08:22:50;93710.09;;;6.18;100.00
6694;BME280;3384;42.628;23.380;2023-02-04T08:25:17;93694.66;;;6.57;100.00
6694;BME280;3384;42.628;23.380;2023-02-04T08:27:45;93683.69;;;6.77;100.00
6694;BME280;3384;42.628;23.380;2023-02-04T08:30:12;93699.91;;;6.44;100.00
6694;BME280;3384;42.628;23.380;2023-02-04T08:32:39;93695.78;;;6.70;100.00
6694;BME280;3384;42.628;23.380;2023-02-04T08:35:07;93694.13;;;6.74;100.00
6694;BME280;3384;42.628;23.380;2023-02-04T08:37:34;93674.16;;;6.39;100.00
6694;BME280;3384;42.628;23.380;2023-02-04T08:40:01;93684.53;;;6.41;100.00
6694;BME280;3384;42.628;23.380;2023-02-04T08:42:28;93705.25;;;6.44;100.00
6694;BME280;3384;42.628;23.380;2023-02-04T08:44:56;93679.91;;;6.46;100.00
6694;BME280;3384;42.628;23.380;2023-02-04T08:47:23;93680.69;;;6.10;100.00
6694;BME280;3384;42.628;23.380;2023-02-04T08:49:49;93690.06;;;6.26;100.00
6694;BME280;3384;42.628;23.380;2023-02-04T08:52:16;93680.03;;;6.73;100.00
6694;BME280;3384;42.628;23.380;2023-02-04T08:54:43;93709.31;;;6.36;100.00
6694;BME280;3384;42.628;23.380;2023-02-04T08:57:10;93695.00;;;6.32;100.00
6694;BME280;3384;42.628;23.380;2023-02-04T08:59:37;93673.38;;;6.02;100.00
6694;BME280;3384;42.628;23.380;2023-02-04T09:02:05;93678.22;;;6.69;100.00
6694;BME280;3384;42.628;23.380;2023-02-04T09:04:32;93687.03;;;6.32;100.00
6694;BME280;3384;42.628;23.380;2023-02-04T09:06:59;93687.09;;;6.27;100.00
6694;BME280;3384;42.628;23.380;2023-02-04T09:09:26;93696.16;;;6.26;100.00
6694;BME280;3384;42.628;23.380;2023-02-04T09:11:53;93685.75;;;6.30;100.00
6694;BME280;3384;42.628;23.380;2023-02-04T09:14:19;93681.19;;;6.49;99.13
6694;BME280;3384;42.628;23.380;2023-02-04T09:16:46;93668.25;;;6.42;100.00
6694;BME280;3384;42.628;23.380;2023-02-04T09:19:15;93670.75;;;7.03;97.34
6694;BME280;3384;42.628;23.380;2023-02-04T09:21:48;93666.59;;;7.10;95.38
6694;BME280;3384;42.628;23.380;2023-02-04T09:24:15;93661.59;;;6.58;94.71
6694;BME280;3384;42.628;23.380;2023-02-04T09:26:41;93673.00;;;6.96;93.08
6694;BME280;3384;42.628;23.380;2023-02-04T09:29:08;93667.91;;;7.13;90.71
6694;BME280;3384;42.628;23.380;2023-02-04T09:31:35;93646.53;;;7.45;87.51
6694;BME280;3384;42.628;23.380;2023-02-04T09:34:03;93669.09;;;6.75;90.54
6694;BME280;3384;42.628;23.380;2023-02-04T09:36:31;93666.13;;;7.08;91.36
6694;BME280;3384;42.628;23.380;2023-02-04T09:39:02;93682.69;;;7.05;91.32
6694;BME280;3384;42.628;23.380;2023-02-04T09:41:30;93686.59;;;6.44;98.95
6694;BME280;3384;42.628;23.380;2023-02-04T09:43:59;93655.19;;;6.78;97.31
6694;BME280;3384;42.628;23.380;2023-02-04T09:46:26;93651.19;;;6.43;100.00
6694;BME280;3384;42.628;23.380;2023-02-04T09:48:54;93654.59;;;6.30;100.00
6694;BME280;3384;42.628;23.380;2023-02-04T09:51:24;93658.94;;;6.58;100.00
6694;BME280;3384;42.628;23.380;2023-02-04T09:54:04;93680.13;;;6.31;100.00
6694;BME280;3384;42.628;23.380;2023-02-04T09:56:32;93642.22;;;6.21;100.00
6694;BME280;3384;42.628;23.380;2023-02-04T09:58:59;93650.25;;;6.34;100.00
6694;BME280;3384;42.628;23.380;2023-02-04T10:01:26;93648.63;;;6.01;100.00
6694;BME280;3384;42.628;23.380;2023-02-04T10:03:58;93652.16;;;6.52;100.00
6694;BME280;3384;42.628;23.380;2023-02-04T10:06:26;93633.00;;;6.32;100.00
6694;BME280;3384;42.628;23.380;2023-02-04T10:08:54;93623.78;;;6.43;100.00
6694;BME280;3384;42.628;23.380;2023-02-04T10:11:24;93624.28;;;6.63;100.00
6694;BME280;3384;42.628;23.380;2023-02-04T10:13:53;93615.63;;;6.39;100.00
6694;BME280;3384;42.628;23.380;2023-02-04T10:16:22;93634.63;;;6.14;100.00
6694;BME280;3384;42.628;23.380;2023-02-04T10:18:54;93625.97;;;6.22;100.00
6694;BME280;3384;42.628;23.380;2023-02-04T10:21:25;93639.50;;;6.76;100.00
6694;BME280;3384;42.628;23.380;2023-02-04T10:23:55;93628.19;;;6.84;100.00
6694;BME280;3384;42.628;23.380;2023-02-04T10:26:25;93610.16;;;6.63;100.00
6694;BME280;3384;42.628;23.380;2023-02-04T10:28:58;93602.09;;;6.68;100.00
6694;BME280;3384;42.628;23.380;2023-02-04T10:31:27;93619.03;;;6.90;100.00
6694;BME280;3384;42.628;23.380;2023-02-04T10:34:08;93614.47;;;6.08;100.00
6694;BME280;3384;42.628;23.380;2023-02-04T10:36:36;93617.13;;;6.77;100.00
6694;BME280;3384;42.628;23.380;2023-02-04T10:39:05;93586.06;;;5.85;100.00
6694;BME280;3384;42.628;23.380;2023-02-04T10:41:35;93623.81;;;5.87;100.00
6694;BME280;3384;42.628;23.380;2023-02-04T10:44:04;93616.44;;;6.03;100.00
6694;BME280;3384;42.628;23.380;2023-02-04T10:46:31;93642.50;;;6.19;100.00
6694;BME280;3384;42.628;23.380;2023-02-04T10:48:58;93585.59;;;6.02;100.00
6694;BME280;3384;42.628;23.380;2023-02-04T10:51:25;93633.53;;;6.34;100.00
6694;BME280;3384;42.628;23.380;2023-02-04T10:53:52;93603.41;;;6.20;100.00
6694;BME280;3384;42.628;23.380;2023-02-04T10:56:38;93613.97;;;6.25;100.00
6694;BME280;3384;42.628;23.380;2023-02-04T10:59:05;93596.19;;;6.39;100.00
6694;BME280;3384;42.628;23.380;2023-02-04T11:01:31;93588.88;;;6.12;100.00
6694;BME280;3384;42.628;23.380;2023-02-04T11:03:58;93603.25;;;6.48;100.00
6694;BME280;3384;42.628;23.380;2023-02-04T11:06:25;93594.16;;;6.17;100.00
6694;BME280;3384;42.628;23.380;2023-02-04T11:08:52;93587.63;;;6.42;100.00
6694;BME280;3384;42.628;23.380;2023-02-04T11:11:23;93570.09;;;6.54;100.00
6694;BME280;3384;42.628;23.380;2023-02-04T11:13:59;93586.44;;;6.80;100.00
6694;BME280;3384;42.628;23.380;2023-02-04T11:16:29;93572.78;;;7.13;100.00
6694;BME280;3384;42.628;23.380;2023-02-04T11:18:58;93580.25;;;6.98;100.00
6694;BME280;3384;42.628;23.380;2023-02-04T11:21:40;93573.47;;;6.92;100.00
6694;BME280;3384;42.628;23.380;2023-02-04T11:24:22;93587.75;;;6.96;100.00
6694;BME280;3384;42.628;23.380;2023-02-04T11:26:50;93562.81;;;6.92;100.00
6694;BME280;3384;42.628;23.380;2023-02-04T11:29:30;93577.13;;;7.23;100.00
6694;BME280;3384;42.628;23.380;2023-02-04T11:32:04;93577.44;;;6.62;100.00
6694;BME280;3384;42.628;23.380;2023-02-04T11:34:45;93583.38;;;6.73;100.00
6694;BME280;3384;42.628;23.380;2023-02-04T11:37:33;93582.41;;;6.82;100.00
6694;BME280;3384;42.628;23.380;2023-02-04T11:40:13;93596.66;;;6.59;100.00
6694;BME280;3384;42.628;23.380;2023-02-04T11:42:46;93589.69;;;6.77;100.00
6694;BME280;3384;42.628;23.380;2023-02-04T11:45:17;93583.81;;;7.07;100.00
6694;BME280;3384;42.628;23.380;2023-02-04T11:47:46;93582.03;;;7.02;100.00
6694;BME280;3384;42.628;23.380;2023-02-04T11:50:18;93582.78;;;6.76;100.00
6694;BME280;3384;42.628;23.380;2023-02-04T11:52:46;93608.03;;;6.46;100.00
6694;BME280;3384;42.628;23.380;2023-02-04T11:56:13;93589.50;;;6.73;100.00
6694;BME280;3384;42.628;23.380;2023-02-04T11:58:32;93593.03;;;6.69;100.00
6694;BME280;3384;42.628;23.380;2023-02-04T12:01:00;93609.19;;;6.72;100.00
6694;BME280;3384;42.628;23.380;2023-02-04T12:03:29;93575.25;;;6.64;100.00
6694;BME280;3384;42.628;23.380;2023-02-04T12:05:59;93563.00;;;6.50;100.00
6694;BME280;3384;42.628;23.380;2023-02-04T12:08:31;93591.47;;;6.68;100.00
6694;BME280;3384;42.628;23.380;2023-02-04T12:11:02;93579.09;;;6.26;100.00
6694;BME280;3384;42.628;23.380;2023-02-04T12:13:30;93616.34;;;6.26;100.00
6694;BME280;3384;42.628;23.380;2023-02-04T12:15:59;93577.34;;;6.35;100.00
6694;BME280;3384;42.628;23.380;2023-02-04T12:18:31;93588.41;;;5.92;100.00
6694;BME280;3384;42.628;23.380;2023-02-04T12:20:59;93564.31;;;5.83;100.00
6694;BME280;3384;42.628;23.380;2023-02-04T12:23:27;93558.19;;;6.20;100.00
6694;BME280;3384;42.628;23.380;2023-02-04T12:25:57;93566.00;;;5.74;100.00
6694;BME280;3384;42.628;23.380;2023-02-04T12:28:24;93546.59;;;6.11;100.00
6694;BME280;3384;42.628;23.380;2023-02-04T12:30:52;93579.53;;;5.96;100.00
6694;BME280;3384;42.628;23.380;2023-02-04T12:33:19;93560.03;;;6.19;100.00
6694;BME280;3384;42.628;23.380;2023-02-04T12:35:48;93554.13;;;5.90;100.00
6694;BME280;3384;42.628;23.380;2023-02-04T12:38:15;93549.78;;;5.94;100.00
6694;BME280;3384;42.628;23.380;2023-02-04T12:40:42;93543.47;;;5.90;100.00
6694;BME280;3384;42.628;23.380;2023-02-04T12:43:09;93556.47;;;6.10;100.00
6694;BME280;3384;42.628;23.380;2023-02-04T12:45:36;93558.19;;;6.20;100.00
6694;BME280;3384;42.628;23.380;2023-02-04T12:48:06;93548.72;;;6.27;100.00
6694;BME280;3384;42.628;23.380;2023-02-04T12:50:33;93574.84;;;6.25;100.00
6694;BME280;3384;42.628;23.380;2023-02-04T12:53:01;93546.94;;;6.41;100.00
6694;BME280;3384;42.628;23.380;2023-02-04T12:55:28;93556.47;;;6.42;100.00
6694;BME280;3384;42.628;23.380;2023-02-04T12:57:55;93552.97;;;6.60;100.00
6694;BME280;3384;42.628;23.380;2023-02-04T13:00:22;93544.16;;;6.46;100.00
6694;BME280;3384;42.628;23.380;2023-02-04T13:02:51;93550.72;;;6.67;100.00
6694;BME280;3384;42.628;23.380;2023-02-04T13:05:19;93568.69;;;6.43;100.00
6694;BME280;3384;42.628;23.380;2023-02-04T13:07:47;93559.63;;;6.44;100.00
6694;BME280;3384;42.628;23.380;2023-02-04T13:10:16;93554.00;;;6.32;100.00
6694;BME280;3384;42.628;23.380;2023-02-04T13:12:44;93540.41;;;6.47;100.00
6694;BME280;3384;42.628;23.380;2023-02-04T13:15:11;93560.00;;;5.87;100.00
6694;BME280;3384;42.628;23.380;2023-02-04T13:17:38;93580.00;;;5.85;100.00
6694;BME280;3384;42.628;23.380;2023-02-04T13:20:05;93581.47;;;5.91;100.00
6694;BME280;3384;42.628;23.380;2023-02-04T13:22:32;93603.25;;;5.93;100.00